sensor_id;sensor_type;location;lat;lon;timestamp;pressure;altitude;pressure_sealevel;temperature;humidity
64616;BME280;51027;42.162;24.754;2023-06-14T03:01:36;99360.53;;;19.16;100.00
64616;BME280;51027;42.162;24.754;2023-06-14T03:04:08;99367.22;;;19.10;100.00
64616;BME280;51027;42.162;24.754;2023-06-14T03:06:35;99349.75;;;18.95;100.00
64616;BME280;51027;42.162;24.754;2023-06-14T03:09:02;99360.81;;;19.02;100.00
64616;BME280;51027;42.162;24.754;2023-06-14T03:11:30;99366.72;;;19.16;100.00
64616;BME280;51027;42.162;24.754;2023-06-14T03:13:56;99374.25;;;19.22;100.00
64616;BME280;51027;42.162;24.754;2023-06-14T03:16:22;99363.22;;;19.05;100.00
64616;BME280;51027;42.162;24.754;2023-06-14T03:18:50;99378.25;;;19.06;100.00
64616;BME280;51027;42.162;24.754;2023-06-14T03:21:15;99389.44;;;19.11;100.00
64616;BME280;51027;42.162;24.754;2023-06-14T03:23:42;99382.28;;;19.11;100.00
64616;BME280;51027;42.162;24.754;2023-06-14T03:26:07;99388.47;;;19.12;100.00
64616;BME280;51027;42.162;24.754;2023-06-14T03:28:33;99377.03;;;18.98;100.00
64616;BME280;51027;42.162;24.754;2023-06-14T03:30:58;99374.38;;;18.98;100.00
64616;BME280;51027;42.162;24.754;2023-06-14T03:33:24;99382.03;;;19.03;100.00
64616;BME280;51027;42.162;24.754;2023-06-14T03:35:50;99382.25;;;19.00;100.00
64616;BME280;51027;42.162;24.754;2023-06-14T03:38:16;99383.59;;;18.94;100.00
64616;BME280;51027;42.162;24.754;2023-06-14T03:40:41;99391.72;;;18.93;100.00
64616;BME280;51027;42.162;24.754;2023-06-14T03:43:07;99383.47;;;18.96;100.00
64616;BME280;51027;42.162;24.754;2023-06-14T03:45:32;99391.22;;;19.10;100.00
64616;BME280;51027;42.162;24.754;2023-06-14T03:47:58;99396.81;;;19.18;100.00
64616;BME280;51027;42.162;24.754;2023-06-14T03:50:25;99410.88;;;19.20;100.00
64616;BME280;51027;42.162;24.754;2023-06-14T03:52:52;99413.47;;;19.11;100.00
64616;BME280;51027;42.162;24.754;2023-06-14T03:55:17;99413.69;;;19.08;100.00
64616;BME280;51027;42.162;24.754;2023-06-14T03:57:43;99423.53;;;19.18;100.00
64616;BME280;51027;42.162;24.754;2023-06-14T04:00:09;99418.94;;;19.32;100.00
64616;BME280;51027;42.162;24.754;2023-06-14T04:02:35;99410.53;;;19.25;100.00
64616;BME280;51027;42.162;24.754;2023-06-14T04:05:02;99412.97;;;19.28;100.00
64616;BME280;51027;42.162;24.754;2023-06-14T04:07:28;99416.72;;;19.25;100.00
64616;BME280;51027;42.162;24.754;2023-06-14T04:09:54;99414.53;;;19.31;100.00
64616;BME280;51027;42.162;24.754;2023-06-14T04:12:20;99410.03;;;19.20;100.00
64616;BME280;51027;42.162;24.754;2023-06-14T04:14:45;99403.00;;;19.19;100.00
64616;BME280;51027;42.162;24.754;2023-06-14T04:17:11;99420.75;;;19.31;100.00
64616;BME280;51027;42.162;24.754;2023-06-14T04:19:36;99406.66;;;19.29;100.00
64616;BME280;51027;42.162;24.754;2023-06-14T04:22:02;99412.09;;;19.39;100.00
64616;BME280;51027;42.162;24.754;2023-06-14T04:24:28;99423.63;;;19.50;100.00
64616;BME280;51027;42.162;24.754;2023-06-14T04:26:58;99425.44;;;19.50;100.00
64616;BME280;51027;42.162;24.754;2023-06-14T04:29:24;99425.44;;;19.50;100.00
64616;BME280;51027;42.162;24.754;2023-06-14T04:31:53;99418.66;;;19.46;100.00
64616;BME280;51027;42.162;24.754;2023-06-14T04:34:19;99436.63;;;19.66;100.00
64616;BME280;51027;42.162;24.754;2023-06-14T04:36:46;99424.59;;;19.72;100.00
64616;BME280;51027;42.162;24.754;2023-06-14T04:39:19;99420.59;;;19.77;100.00
64616;BME280;51027;42.162;24.754;2023-06-14T04:41:44;99433.19;;;19.87;100.00
64616;BME280;51027;42.162;24.754;2023-06-14T04:44:10;99433.31;;;19.85;100.00
64616;BME280;51027;42.162;24.754;2023-06-14T04:46:36;99431.97;;;19.91;100.00
64616;BME280;51027;42.162;24.754;2023-06-14T04:49:17;99444.25;;;19.93;100.00
64616;BME280;51027;42.162;24.754;2023-06-14T04:51:44;99436.94;;;19.95;100.00
64616;BME280;51027;42.162;24.754;2023-06-14T04:54:10;99431.94;;;20.02;100.00
64616;BME280;51027;42.162;24.754;2023-06-14T04:56:40;99431.06;;;20.01;100.00
64616;BME280;51027;42.162;24.754;2023-06-14T04:59:05;99440.31;;;20.08;100.00
64616;BME280;51027;42.162;24.754;2023-06-14T05:01:31;99441.28;;;20.07;100.00
64616;BME280;51027;42.162;24.754;2023-06-14T05:03:58;99442.00;;;20.09;100.00
64616;BME280;51027;42.162;24.754;2023-06-14T05:06:23;99451.94;;;20.19;100.00
64616;BME280;51027;42.162;24.754;2023-06-14T05:08:49;99449.00;;;20.22;100.00
64616;BME280;51027;42.162;24.754;2023-06-14T05:11:14;99441.63;;;20.14;100.00
64616;BME280;51027;42.162;24.754;2023-06-14T05:13:40;99431.16;;;20.11;100.00
64616;BME280;51027;42.162;24.754;2023-06-14T05:16:07;99451.19;;;20.28;100.00
64616;BME280;51027;42.162;24.754;2023-06-14T05:18:32;99443.41;;;20.25;100.00
64616;BME280;51027;42.162;24.754;2023-06-14T05:20:59;99448.50;;;20.28;100.00
64616;BME280;51027;42.162;24.754;2023-06-14T05:23:25;99447.16;;;20.22;100.00
64616;BME280;51027;42.162;24.754;2023-06-14T05:25:50;99466.13;;;20.30;100.00
64616;BME280;51027;42.162;24.754;2023-06-14T05:28:16;99462.28;;;20.23;100.00
64616;BME280;51027;42.162;24.754;2023-06-14T05:30:41;99465.41;;;20.28;100.00
64616;BME280;51027;42.162;24.754;2023-06-14T05:33:07;99479.13;;;20.35;100.00
64616;BME280;51027;42.162;24.754;2023-06-14T05:35:32;99474.34;;;20.38;100.00
64616;BME280;51027;42.162;24.754;2023-06-14T05:37:58;99468.47;;;20.24;100.00
64616;BME280;51027;42.162;24.754;2023-06-14T05:40:23;99464.94;;;20.23;100.00
64616;BME280;51027;42.162;24.754;2023-06-14T05:42:49;99454.44;;;20.31;100.00
64616;BME280;51027;42.162;24.754;2023-06-14T05:45:14;99475.91;;;20.52;100.00
64616;BME280;51027;42.162;24.754;2023-06-14T05:47:42;99480.56;;;20.39;100.00
64616;BME280;51027;42.162;24.754;2023-06-14T05:50:08;99478.09;;;20.15;100.00
64616;BME280;51027;42.162;24.754;2023-06-14T05:52:34;99487.97;;;20.47;100.00
64616;BME280;51027;42.162;24.754;2023-06-14T05:55:00;99490.25;;;20.51;100.00
64616;BME280;51027;42.162;24.754;2023-06-14T05:57:26;99496.00;;;20.47;100.00
64616;BME280;51027;42.162;24.754;2023-06-14T05:59:51;99501.03;;;20.61;100.00
64616;BME280;51027;42.162;24.754;2023-06-14T06:02:17;99486.88;;;20.70;100.00
64616;BME280;51027;42.162;24.754;2023-06-14T06:04:42;99490.81;;;20.66;100.00
64616;BME280;51027;42.162;24.754;2023-06-14T06:07:08;99495.19;;;20.67;100.00
64616;BME280;51027;42.162;24.754;2023-06-14T06:09:33;99492.03;;;20.62;100.00
64616;BME280;51027;42.162;24.754;2023-06-14T06:11:58;99483.22;;;20.50;100.00
64616;BME280;51027;42.162;24.754;2023-06-14T06:14:24;99479.97;;;20.35;100.00
64616;BME280;51027;42.162;24.754;2023-06-14T06:16:50;99475.06;;;20.52;100.00
64616;BME280;51027;42.162;24.754;2023-06-14T06:19:18;99492.16;;;20.60;100.00
64616;BME280;51027;42.162;24.754;2023-06-14T06:21:43;99496.31;;;20.64;100.00
64616;BME280;51027;42.162;24.754;2023-06-14T06:24:08;99485.53;;;20.76;100.00
64616;BME280;51027;42.162;24.754;2023-06-14T06:26:34;99490.56;;;20.90;100.00
64616;BME280;51027;42.162;24.754;2023-06-14T06:28:59;99484.56;;;20.97;100.00
64616;BME280;51027;42.162;24.754;2023-06-14T06:31:25;99467.81;;;20.63;100.00
64616;BME280;51027;42.162;24.754;2023-06-14T06:33:52;99500.84;;;20.94;100.00
64616;BME280;51027;42.162;24.754;2023-06-14T06:36:19;99490.75;;;21.19;100.00
64616;BME280;51027;42.162;24.754;2023-06-14T06:38:47;99494.84;;;21.23;100.00
64616;BME280;51027;42.162;24.754;2023-06-14T06:41:13;99503.38;;;21.28;100.00
64616;BME280;51027;42.162;24.754;2023-06-14T06:43:38;99507.94;;;21.37;100.00
64616;BME280;51027;42.162;24.754;2023-06-14T06:46:03;99500.94;;;21.55;100.00
64616;BME280;51027;42.162;24.754;2023-06-14T06:48:29;99508.50;;;21.71;100.00
64616;BME280;51027;42.162;24.754;2023-06-14T06:50:54;99495.72;;;21.54;100.00
64616;BME280;51027;42.162;24.754;2023-06-14T06:53:20;99495.94;;;21.72;100.00
64616;BME280;51027;42.162;24.754;2023-06-14T06:55:45;99504.66;;;21.64;100.00
64616;BME280;51027;42.162;24.754;2023-06-14T06:58:12;99504.00;;;21.72;100.00
64616;BME280;51027;42.162;24.754;2023-06-14T07:00:37;99506.91;;;21.59;100.00
64616;BME280;51027;42.162;24.754;2023-06-14T07:03:03;99497.00;;;21.50;100.00
64616;BME280;51027;42.162;24.754;2023-06-14T07:05:29;99503.81;;;21.64;100.00
64616;BME280;51027;42.162;24.754;2023-06-14T07:07:54;99497.19;;;21.58;100.00
64616;BME280;51027;42.162;24.754;2023-06-14T07:10:20;99503.44;;;21.68;100.00
64616;BME280;51027;42.162;24.754;2023-06-14T07:12:45;99504.00;;;21.72;100.00
64616;BME280;51027;42.162;24.754;2023-06-14T07:15:12;99508.81;;;21.78;100.00
64616;BME280;51027;42.162;24.754;2023-06-14T07:17:37;99496.28;;;21.88;100.00
64616;BME280;51027;42.162;24.754;2023-06-14T07:20:03;99503.44;;;22.08;100.00
64616;BME280;51027;42.162;24.754;2023-06-14T07:22:32;99508.66;;;22.10;100.00
64616;BME280;51027;42.162;24.754;2023-06-14T07:24:58;99508.06;;;22.06;100.00
64616;BME280;51027;42.162;24.754;2023-06-14T07:27:23;99487.91;;;22.22;100.00
64616;BME280;51027;42.162;24.754;2023-06-14T07:29:48;99497.69;;;22.32;100.00
64616;BME280;51027;42.162;24.754;2023-06-14T07:32:14;99500.50;;;22.40;100.00
64616;BME280;51027;42.162;24.754;2023-06-14T07:34:39;99483.41;;;22.41;100.00
64616;BME280;51027;42.162;24.754;2023-06-14T07:37:05;99501.22;;;22.42;100.00
64616;BME280;51027;42.162;24.754;2023-06-14T07:39:30;99481.72;;;22.40;100.00
64616;BME280;51027;42.162;24.754;2023-06-14T07:41:56;99503.22;;;22.50;100.00
64616;BME280;51027;42.162;24.754;2023-06-14T07:44:24;99492.63;;;22.58;100.00
64616;BME280;51027;42.162;24.754;2023-06-14T07:46:50;99499.38;;;22.72;100.00
64616;BME280;51027;42.162;24.754;2023-06-14T07:49:16;99508.84;;;22.76;100.00
64616;BME280;51027;42.162;24.754;2023-06-14T07:51:41;99496.69;;;22.62;100.00
64616;BME280;51027;42.162;24.754;2023-06-14T07:54:08;99485.66;;;22.65;100.00
64616;BME280;51027;42.162;24.754;2023-06-14T07:56:34;99501.50;;;22.88;100.00
64616;BME280;51027;42.162;24.754;2023-06-14T07:58:59;99494.28;;;22.98;100.00
64616;BME280;51027;42.162;24.754;2023-06-14T08:01:24;99488.22;;;22.86;100.00
64616;BME280;51027;42.162;24.754;2023-06-14T08:03:51;99485.13;;;22.91;100.00
64616;BME280;51027;42.162;24.754;2023-06-14T08:06:16;99492.44;;;23.08;100.00
64616;BME280;51027;42.162;24.754;2023-06-14T08:08:41;99497.22;;;23.14;100.00
64616;BME280;51027;42.162;24.754;2023-06-14T08:11:07;99501.75;;;23.23;100.00
64616;BME280;51027;42.162;24.754;2023-06-14T08:13:32;99510.13;;;23.11;100.00
64616;BME280;51027;42.162;24.754;2023-06-14T08:15:58;99490.28;;;23.21;100.00
64616;BME280;51027;42.162;24.754;2023-06-14T08:18:23;99502.53;;;23.43;100.00
64616;BME280;51027;42.162;24.754;2023-06-14T08:20:49;99507.94;;;23.34;100.00
64616;BME280;51027;42.162;24.754;2023-06-14T08:23:15;99511.09;;;23.56;100.00
64616;BME280;51027;42.162;24.754;2023-06-14T08:25:44;99503.44;;;23.71;100.00
64616;BME280;51027;42.162;24.754;2023-06-14T08:28:10;99491.16;;;23.59;100.00
64616;BME280;51027;42.162;24.754;2023-06-14T08:30:36;99513.50;;;23.97;100.00
64616;BME280;51027;42.162;24.754;2023-06-14T08:33:01;99519.47;;;23.91;100.00
64616;BME280;51027;42.162;24.754;2023-06-14T08:35:26;99531.44;;;24.06;100.00
64616;BME280;51027;42.162;24.754;2023-06-14T08:37:52;99526.66;;;24.00;100.00
64616;BME280;51027;42.162;24.754;2023-06-14T08:40:18;99534.34;;;24.22;100.00
64616;BME280;51027;42.162;24.754;2023-06-14T08:42:55;99519.78;;;24.15;98.40
64616;BME280;51027;42.162;24.754;2023-06-14T08:45:22;99530.78;;;23.94;100.00
64616;BME280;51027;42.162;24.754;2023-06-14T08:47:48;99525.53;;;24.02;100.00
64616;BME280;51027;42.162;24.754;2023-06-14T08:50:20;99536.25;;;24.12;98.54
64616;BME280;51027;42.162;24.754;2023-06-14T08:52:48;99533.06;;;24.17;97.98
64616;BME280;51027;42.162;24.754;2023-06-14T08:55:18;99529.66;;;23.97;98.50
64616;BME280;51027;42.162;24.754;2023-06-14T08:57:46;99539.47;;;24.16;96.12
64616;BME280;51027;42.162;24.754;2023-06-14T09:00:12;99522.69;;;24.04;97.10
64616;BME280;51027;42.162;24.754;2023-06-14T09:02:39;99531.94;;;23.92;100.00
64616;BME280;51027;42.162;24.754;2023-06-14T09:05:10;99526.75;;;24.08;98.08
64616;BME280;51027;42.162;24.754;2023-06-14T09:07:37;99528.16;;;24.30;93.99
64616;BME280;51027;42.162;24.754;2023-06-14T09:10:11;99526.91;;;24.52;95.94
64616;BME280;51027;42.162;24.754;2023-06-14T09:12:37;99516.63;;;24.47;93.51
64616;BME280;51027;42.162;24.754;2023-06-14T09:15:04;99508.06;;;24.69;91.63
64616;BME280;51027;42.162;24.754;2023-06-14T09:17:41;99513.13;;;24.90;93.34
64616;BME280;51027;42.162;24.754;2023-06-14T09:20:08;99500.50;;;24.91;90.59
64616;BME280;51027;42.162;24.754;2023-06-14T09:22:38;99511.44;;;24.89;92.41
64616;BME280;51027;42.162;24.754;2023-06-14T09:25:04;99511.53;;;24.62;94.49
64616;BME280;51027;42.162;24.754;2023-06-14T09:27:30;99516.25;;;24.42;96.62
64616;BME280;51027;42.162;24.754;2023-06-14T09:29:56;99501.88;;;24.24;95.81
64616;BME280;51027;42.162;24.754;2023-06-14T09:32:22;99484.31;;;24.20;94.37
64616;BME280;51027;42.162;24.754;2023-06-14T09:34:47;99506.38;;;24.33;95.08
64616;BME280;51027;42.162;24.754;2023-06-14T09:37:26;99503.41;;;24.54;94.94
64616;BME280;51027;42.162;24.754;2023-06-14T09:39:51;99507.09;;;24.53;94.77
64616;BME280;51027;42.162;24.754;2023-06-14T09:42:18;99498.22;;;24.60;95.01
64616;BME280;51027;42.162;24.754;2023-06-14T09:44:47;99492.47;;;24.55;93.37
64616;BME280;51027;42.162;24.754;2023-06-14T09:47:15;99480.84;;;24.55;93.62
64616;BME280;51027;42.162;24.754;2023-06-14T09:49:40;99494.91;;;24.66;96.40
64616;BME280;51027;42.162;24.754;2023-06-14T09:52:06;99492.00;;;24.60;96.13
64616;BME280;51027;42.162;24.754;2023-06-14T09:54:35;99490.75;;;24.72;95.10
64616;BME280;51027;42.162;24.754;2023-06-14T09:57:07;99498.47;;;24.67;95.01
64616;BME280;51027;42.162;24.754;2023-06-14T09:59:33;99488.75;;;24.74;92.48
64616;BME280;51027;42.162;24.754;2023-06-14T10:02:05;99479.44;;;24.68;91.06
64616;BME280;51027;42.162;24.754;2023-06-14T10:04:34;99473.47;;;24.83;89.97
64616;BME280;51027;42.162;24.754;2023-06-14T10:07:00;99487.00;;;24.65;88.60
64616;BME280;51027;42.162;24.754;2023-06-14T10:09:26;99461.25;;;24.17;90.52
64616;BME280;51027;42.162;24.754;2023-06-14T10:11:52;99475.91;;;24.50;92.15
64616;BME280;51027;42.162;24.754;2023-06-14T10:14:18;99479.69;;;24.75;92.22
64616;BME280;51027;42.162;24.754;2023-06-14T10:16:56;99479.03;;;24.81;90.42
64616;BME280;51027;42.162;24.754;2023-06-14T10:19:30;99474.56;;;24.90;88.23
64616;BME280;51027;42.162;24.754;2023-06-14T10:22:01;99479.84;;;24.99;90.35
64616;BME280;51027;42.162;24.754;2023-06-14T10:24:30;99484.91;;;25.20;88.60
64616;BME280;51027;42.162;24.754;2023-06-14T10:26:58;99485.69;;;25.65;81.94
64616;BME280;51027;42.162;24.754;2023-06-14T10:29:27;99459.84;;;26.04;82.30
64616;BME280;51027;42.162;24.754;2023-06-14T10:31:57;99468.50;;;26.24;80.71
64616;BME280;51027;42.162;24.754;2023-06-14T10:34:28;99473.59;;;26.35;80.93
64616;BME280;51027;42.162;24.754;2023-06-14T10:37:05;99475.59;;;26.09;81.98
64616;BME280;51027;42.162;24.754;2023-06-14T10:39:33;99458.78;;;26.56;81.47
64616;BME280;51027;42.162;24.754;2023-06-14T10:42:02;99474.84;;;26.74;80.63
64616;BME280;51027;42.162;24.754;2023-06-14T10:46:56;99464.59;;;26.02;83.33
64616;BME280;51027;42.162;24.754;2023-06-14T10:49:43;99460.00;;;25.87;82.41
64616;BME280;51027;42.162;24.754;2023-06-14T10:52:14;99462.44;;;26.22;81.48
64616;BME280;51027;42.162;24.754;2023-06-14T10:57:33;99455.44;;;26.78;79.48
64616;BME280;51027;42.162;24.754;2023-06-14T11:00:00;99436.47;;;26.94;75.89
64616;BME280;51027;42.162;24.754;2023-06-14T11:05:03;99449.34;;;26.52;78.55
64616;BME280;51027;42.162;24.754;2023-06-14T11:10:38;99431.47;;;26.59;79.60
64616;BME280;51027;42.162;24.754;2023-06-14T11:13:04;99436.25;;;26.14;79.42
64616;BME280;51027;42.162;24.754;2023-06-14T11:15:31;99448.38;;;25.86;79.91
64616;BME280;51027;42.162;24.754;2023-06-14T11:17:57;99434.22;;;26.00;80.81
64616;BME280;51027;42.162;24.754;2023-06-14T11:20:27;99411.44;;;25.87;82.71
64616;BME280;51027;42.162;24.754;2023-06-14T11:22:53;99433.44;;;26.32;82.32
64616;BME280;51027;42.162;24.754;2023-06-14T11:25:19;99426.91;;;26.67;80.04
64616;BME280;51027;42.162;24.754;2023-06-14T11:27:45;99439.38;;;26.77;76.26
64616;BME280;51027;42.162;24.754;2023-06-14T11:30:11;99406.91;;;27.01;76.26
64616;BME280;51027;42.162;24.754;2023-06-14T11:32:40;99433.59;;;27.20;75.74
64616;BME280;51027;42.162;24.754;2023-06-14T11:35:06;99424.81;;;27.18;75.05
64616;BME280;51027;42.162;24.754;2023-06-14T11:37:32;99420.72;;;27.31;72.70
64616;BME280;51027;42.162;24.754;2023-06-14T11:40:03;99430.22;;;27.18;73.10
64616;BME280;51027;42.162;24.754;2023-06-14T11:42:31;99421.22;;;27.26;74.25
64616;BME280;51027;42.162;24.754;2023-06-14T11:44:57;99414.00;;;27.18;72.23
64616;BME280;51027;42.162;24.754;2023-06-14T11:47:22;99390.19;;;27.14;70.54
64616;BME280;51027;42.162;24.754;2023-06-14T11:49:48;99415.06;;;27.48;69.22
64616;BME280;51027;42.162;24.754;2023-06-14T11:52:17;99412.41;;;27.40;67.45
64616;BME280;51027;42.162;24.754;2023-06-14T11:54:43;99411.03;;;27.44;69.61
64616;BME280;51027;42.162;24.754;2023-06-14T11:57:09;99411.19;;;27.51;70.41
64616;BME280;51027;42.162;24.754;2023-06-14T11:59:39;99397.16;;;27.47;69.09
64616;BME280;51027;42.162;24.754;2023-06-14T12:02:05;99409.44;;;27.66;66.08
64616;BME280;51027;42.162;24.754;2023-06-14T12:04:32;99404.41;;;27.47;66.58
64616;BME280;51027;42.162;24.754;2023-06-14T12:07:15;99403.28;;;27.80;64.18
64616;BME280;51027;42.162;24.754;2023-06-14T12:09:43;99402.72;;;27.93;67.34
64616;BME280;51027;42.162;24.754;2023-06-14T12:12:36;99405.94;;;27.89;67.58
64616;BME280;51027;42.162;24.754;2023-06-14T12:15:05;99402.31;;;27.73;66.58
64616;BME280;51027;42.162;24.754;2023-06-14T12:17:38;99394.28;;;27.49;67.23
64616;BME280;51027;42.162;24.754;2023-06-14T12:20:10;99387.53;;;27.84;67.90
64616;BME280;51027;42.162;24.754;2023-06-14T12:22:37;99392.44;;;28.11;69.23
64616;BME280;51027;42.162;24.754;2023-06-14T12:25:04;99390.03;;;27.54;72.71
64616;BME280;51027;42.162;24.754;2023-06-14T12:27:30;99375.66;;;27.54;74.43
64616;BME280;51027;42.162;24.754;2023-06-14T12:30:02;99369.31;;;27.39;76.27
64616;BME280;51027;42.162;24.754;2023-06-14T12:32:28;99363.81;;;27.55;71.99
64616;BME280;51027;42.162;24.754;2023-06-14T12:34:55;99379.09;;;27.79;73.11
64616;BME280;51027;42.162;24.754;2023-06-14T12:37:20;99377.00;;;27.89;69.75
64616;BME280;51027;42.162;24.754;2023-06-14T12:39:46;99358.56;;;27.93;70.47
64616;BME280;51027;42.162;24.754;2023-06-14T12:42:11;99365.97;;;28.22;72.20
64616;BME280;51027;42.162;24.754;2023-06-14T12:44:38;99361.66;;;28.27;71.08
64616;BME280;51027;42.162;24.754;2023-06-14T12:47:06;99357.06;;;28.13;67.62
64616;BME280;51027;42.162;24.754;2023-06-14T12:49:32;99368.22;;;27.48;67.34
64616;BME280;51027;42.162;24.754;2023-06-14T12:51:58;99353.59;;;27.34;69.96
64616;BME280;51027;42.162;24.754;2023-06-14T12:54:23;99347.03;;;27.29;69.77
64616;BME280;51027;42.162;24.754;2023-06-14T12:56:51;99336.78;;;27.47;71.50
64616;BME280;51027;42.162;24.754;2023-06-14T12:59:17;99342.81;;;27.26;72.33
64616;BME280;51027;42.162;24.754;2023-06-14T13:01:43;99334.75;;;27.02;73.18
64616;BME280;51027;42.162;24.754;2023-06-14T13:04:09;99338.34;;;26.94;74.40
64616;BME280;51027;42.162;24.754;2023-06-14T13:06:35;99350.91;;;27.26;72.55
64616;BME280;51027;42.162;24.754;2023-06-14T13:09:01;99330.41;;;26.84;73.74
64616;BME280;51027;42.162;24.754;2023-06-14T13:11:26;99347.88;;;26.57;73.10
64616;BME280;51027;42.162;24.754;2023-06-14T13:13:52;99339.75;;;26.65;73.54
64616;BME280;51027;42.162;24.754;2023-06-14T13:16:17;99345.50;;;26.70;71.88
64616;BME280;51027;42.162;24.754;2023-06-14T13:18:43;99354.88;;;27.07;67.20
64616;BME280;51027;42.162;24.754;2023-06-14T13:21:08;99348.31;;;26.93;68.36
64616;BME280;51027;42.162;24.754;2023-06-14T13:23:34;99345.19;;;27.29;68.34
64616;BME280;51027;42.162;24.754;2023-06-14T13:25:59;99345.53;;;27.57;67.63
64616;BME280;51027;42.162;24.754;2023-06-14T13:28:26;99327.06;;;27.69;69.02
64616;BME280;51027;42.162;24.754;2023-06-14T13:30:51;99329.44;;;27.95;68.63
64616;BME280;51027;42.162;24.754;2023-06-14T13:33:16;99319.56;;;28.02;67.70
64616;BME280;51027;42.162;24.754;2023-06-14T13:35:42;99286.06;;;27.80;68.19
64616;BME280;51027;42.162;24.754;2023-06-14T13:38:09;99321.78;;;27.75;68.26
64616;BME280;51027;42.162;24.754;2023-06-14T13:40:34;99323.59;;;28.06;69.04
64616;BME280;51027;42.162;24.754;2023-06-14T13:43:00;99318.25;;;27.36;72.31
64616;BME280;51027;42.162;24.754;2023-06-14T13:45:25;99327.81;;;27.15;72.75
64616;BME280;51027;42.162;24.754;2023-06-14T13:47:53;99307.06;;;26.99;74.57
64616;BME280;51027;42.162;24.754;2023-06-14T13:50:22;99302.44;;;26.61;75.30
64616;BME280;51027;42.162;24.754;2023-06-14T13:52:48;99307.69;;;26.46;76.70
64616;BME280;51027;42.162;24.754;2023-06-14T13:55:13;99303.31;;;26.29;77.82
64616;BME280;51027;42.162;24.754;2023-06-14T13:57:39;99312.09;;;26.23;79.39
64616;BME280;51027;42.162;24.754;2023-06-14T14:00:05;99299.94;;;26.02;76.39
64616;BME280;51027;42.162;24.754;2023-06-14T14:02:30;99303.66;;;26.01;77.65
64616;BME280;51027;42.162;24.754;2023-06-14T14:04:56;99312.25;;;26.05;76.82
64616;BME280;51027;42.162;24.754;2023-06-14T14:07:22;99306.53;;;26.49;77.56
64616;BME280;51027;42.162;24.754;2023-06-14T14:09:49;99316.72;;;27.02;72.96
64616;BME280;51027;42.162;24.754;2023-06-14T14:12:14;99307.75;;;27.10;70.32
64616;BME280;51027;42.162;24.754;2023-06-14T14:14:40;99312.88;;;27.59;69.90
64616;BME280;51027;42.162;24.754;2023-06-14T14:17:05;99305.34;;;27.77;66.96
64616;BME280;51027;42.162;24.754;2023-06-14T14:19:32;99313.13;;;27.80;67.49
64616;BME280;51027;42.162;24.754;2023-06-14T14:21:57;99302.34;;;27.72;66.70
64616;BME280;51027;42.162;24.754;2023-06-14T14:24:23;99305.31;;;27.85;67.18
64616;BME280;51027;42.162;24.754;2023-06-14T14:26:48;99310.44;;;27.49;68.31
64616;BME280;51027;42.162;24.754;2023-06-14T14:29:15;99317.44;;;27.27;68.07
64616;BME280;51027;42.162;24.754;2023-06-14T14:31:41;99314.16;;;27.01;68.74
64616;BME280;51027;42.162;24.754;2023-06-14T14:34:06;99303.09;;;26.71;70.02
64616;BME280;51027;42.162;24.754;2023-06-14T14:36:32;99308.34;;;26.64;70.37
64616;BME280;51027;42.162;24.754;2023-06-14T14:39:05;99306.91;;;27.09;67.98
64616;BME280;51027;42.162;24.754;2023-06-14T14:41:32;99302.03;;;27.36;66.42
64616;BME280;51027;42.162;24.754;2023-06-14T14:43:57;99299.03;;;27.31;64.64
64616;BME280;51027;42.162;24.754;2023-06-14T14:46:23;99299.16;;;26.98;67.12
64616;BME280;51027;42.162;24.754;2023-06-14T14:48:49;99290.72;;;26.85;66.42
64616;BME280;51027;42.162;24.754;2023-06-14T14:51:14;99295.38;;;27.15;69.35
64616;BME280;51027;42.162;24.754;2023-06-14T14:53:40;99279.66;;;27.19;68.63
64616;BME280;51027;42.162;24.754;2023-06-14T14:56:06;99289.34;;;27.36;63.77
64616;BME280;51027;42.162;24.754;2023-06-14T14:58:31;99283.53;;;27.47;64.31
64616;BME280;51027;42.162;24.754;2023-06-14T15:00:56;99283.31;;;27.26;63.84
64616;BME280;51027;42.162;24.754;2023-06-14T15:03:22;99282.44;;;27.34;63.92
64616;BME280;51027;42.162;24.754;2023-06-14T15:05:47;99288.03;;;27.32;65.23
64616;BME280;51027;42.162;24.754;2023-06-14T15:08:13;99282.78;;;27.31;64.76
64616;BME280;51027;42.162;24.754;2023-06-14T15:10:39;99288.28;;;27.14;66.79
64616;BME280;51027;42.162;24.754;2023-06-14T15:13:09;99268.47;;;26.75;66.25
64616;BME280;51027;42.162;24.754;2023-06-14T15:15:35;99264.72;;;26.84;66.53
64616;BME280;51027;42.162;24.754;2023-06-14T15:18:02;99280.75;;;26.85;66.36
64616;BME280;51027;42.162;24.754;2023-06-14T15:20:27;99281.34;;;27.20;66.93
64616;BME280;51027;42.162;24.754;2023-06-14T15:22:54;99295.66;;;27.29;65.47
64616;BME280;51027;42.162;24.754;2023-06-14T15:25:28;99288.66;;;27.03;65.80
64616;BME280;51027;42.162;24.754;2023-06-14T15:27:54;99279.13;;;27.15;67.73
64616;BME280;51027;42.162;24.754;2023-06-14T15:30:20;99282.94;;;26.98;65.95
64616;BME280;51027;42.162;24.754;2023-06-14T15:32:46;99285.00;;;26.80;67.69
64616;BME280;51027;42.162;24.754;2023-06-14T15:35:11;99280.34;;;26.57;69.44
64616;BME280;51027;42.162;24.754;2023-06-14T15:37:39;99289.13;;;26.51;70.32
64616;BME280;51027;42.162;24.754;2023-06-14T15:40:06;99287.28;;;26.52;71.68
64616;BME280;51027;42.162;24.754;2023-06-14T15:42:31;99286.97;;;26.38;73.93
64616;BME280;51027;42.162;24.754;2023-06-14T15:44:57;99292.00;;;26.50;75.22
64616;BME280;51027;42.162;24.754;2023-06-14T15:47:23;99293.19;;;26.31;76.50
64616;BME280;51027;42.162;24.754;2023-06-14T15:49:48;99300.13;;;26.50;75.65
64616;BME280;51027;42.162;24.754;2023-06-14T15:52:14;99286.78;;;26.48;74.17
64616;BME280;51027;42.162;24.754;2023-06-14T15:54:39;99287.16;;;26.37;75.60